Time;durP1;ratioP1;P1;durP2;ratioP2;P2;SDS_P1;SDS_P2;PMS_P1;PMS_P2;Temp;Humidity;BMP_temperature;BMP_pressure;BME280_temperature;BME280_humidity;BME280_pressure;Samples;Min_cycle;Max_cycle;Signal;HPM_P1;HPM_P2
2022/02/07 00:01:00;;;;;;;50.17;23.17;;;10.80;94.80;;;;;;5012195;28;20040;-52
2022/02/07 00:04:00;;;;;;;42.05;17.42;;;10.80;94.90;;;;;;4997197;28;20505;-52
2022/02/07 00:06:21;;;;;;;39.47;15.45;;;;;;;;;;5011723;28;20045;-53
2022/02/07 00:08:47;;;;;;;36.03;17.83;;;;;;;;;;5014673;28;20481;-51
2022/02/07 00:11:14;;;;;;;47.42;20.45;;;11.00;98.60;;;;;;5016099;28;20026;-53
2022/02/07 00:13:39;;;;;;;89.82;43.15;;;11.00;95.00;;;;;;5015954;28;20029;-52
2022/02/07 00:16:06;;;;;;;28.20;13.63;;;11.00;94.90;;;;;;5016024;28;20026;-51
2022/02/07 00:18:33;;;;;;;24.92;11.18;;;11.00;94.90;;;;;;5015953;28;20030;-49
2022/02/07 00:20:58;;;;;;;26.27;11.05;;;11.10;94.80;;;;;;5015578;28;20033;-49
2022/02/07 00:23:26;;;;;;;37.25;16.25;;;11.10;95.00;;;;;;5015970;28;20022;-52
2022/02/07 00:25:53;;;;;;;11.63;5.65;;;11.10;95.00;;;;;;5015578;28;20125;-51
2022/02/07 00:28:19;;;;;;;12.40;7.13;;;11.10;94.50;;;;;;5015372;28;20056;-52
2022/02/07 00:30:45;;;;;;;8.40;4.82;;;11.20;96.60;;;;;;5015170;28;20018;-51
2022/02/07 00:33:12;;;;;;;22.40;10.18;;;11.20;94.50;;;;;;5016932;28;20041;-51
2022/02/07 00:35:40;;;;;;;16.88;7.75;;;11.20;94.40;;;;;;5012945;28;20065;-53
2022/02/07 00:38:14;;;;;;;38.35;17.08;;;11.30;99.90;;;;;;5013127;28;20068;-53
2022/02/07 00:48:15;;;;;;;3.80;1.90;;;9.90;96.80;;;;;;5012884;28;20045;-50
2022/02/07 00:50:43;;;;;;;4.63;2.30;;;9.60;96.90;;;;;;5029567;28;20038;-52
2022/02/07 00:53:12;;;;;;;5.60;2.95;;;9.60;97.00;;;;;;5013707;28;20033;-55
2022/02/07 00:55:38;;;;;;;5.53;2.50;;;9.50;97.20;;;;;;4997086;28;20088;-50
2022/02/07 00:58:04;;;;;;;7.65;2.85;;;9.40;97.20;;;;;;5030158;28;20037;-51
2022/02/07 01:00:33;;;;;;;3.83;2.45;;;9.30;97.50;;;;;;5013423;28;20037;-51
2022/02/07 01:02:59;;;;;;;2.90;2.17;;;9.10;97.80;;;;;;5013224;28;20037;-52
2022/02/07 01:05:27;;;;;;;5.28;3.03;;;9.20;98.10;;;;;;5013628;28;20029;-51
2022/02/07 01:07:54;;;;;;;6.22;2.97;;;9.10;98.40;;;;;;5013623;28;20636;-51
2022/02/07 01:10:37;;;;;;;4.93;2.05;;;9.10;98.30;;;;;;5014059;28;20130;-50
2022/02/07 01:16:11;;;;;;;4.63;2.67;;;9.00;98.70;;;;;;5033732;28;20064;-52
2022/02/07 01:53:45;;;;;;;2.83;1.85;;;8.80;99.90;;;;;;4993149;28;20045;-51
2022/02/07 01:56:10;;;;;;;2.35;1.63;;;8.70;99.90;;;;;;4992659;28;20097;-51
2022/02/07 01:58:36;;;;;;;4.65;2.67;;;8.80;99.90;;;;;;5004256;28;20034;-50
2022/02/07 02:01:02;;;;;;;6.15;3.00;;;8.80;99.90;;;;;;5029000;28;20454;-51
2022/02/07 02:03:29;;;;;;;3.80;3.00;;;8.90;99.90;;;;;;5014956;28;20041;-52
2022/02/07 02:05:56;;;;;;;4.95;2.70;;;8.90;99.90;;;;;;5014691;28;20069;-49
2022/02/07 02:08:22;;;;;;;2.13;1.63;;;8.90;99.90;;;;;;5013152;28;20037;-50
2022/02/07 02:10:52;;;;;;;3.83;2.80;;;8.90;99.90;;;;;;5012249;28;20058;-49
2022/02/07 02:13:29;;;;;;;3.25;1.77;;;9.00;99.90;;;;;;5012137;28;20045;-50
2022/02/07 02:35:12;;;;;;;2.95;1.85;;;;;;;;;;5011355;28;20060;-50
2022/02/07 02:37:24;;;;;;;3.90;2.20;;;;;;;;;;5011163;28;20121;-49
2022/02/07 02:45:31;;;;;;;3.15;1.65;;;;;;;;;;5013447;28;20041;-49
2022/02/07 02:48:03;;;;;;;5.88;2.22;;;;;;;;;;5013348;28;20459;-52
2022/02/07 02:52:56;;;;;;;6.28;2.33;;;;;;;;;;5013629;28;20053;-59
2022/02/07 02:55:23;;;;;;;4.13;1.85;;;;;;;;;;5028118;28;20038;-51
2022/02/07 02:57:49;;;;;;;2.90;2.08;;;;;;;;;;5029341;28;20092;-51
2022/02/07 03:00:15;;;;;;;3.10;1.50;;;;;;;;;;4995640;28;20112;-52
2022/02/07 03:02:42;;;;;;;2.42;1.83;;;;;;;;;;5014474;28;20036;-67
2022/02/07 03:05:08;;;;;;;2.70;1.75;;;;;;;;;;5012621;28;20040;-50
2022/02/07 03:07:35;;;;;;;2.67;2.03;;;;;;;;;;5014264;28;20109;-51
2022/02/07 03:10:02;;;;;;;2.03;1.58;;;;;;;;;;5015808;28;20418;-49
2022/02/07 03:12:31;;;;;;;2.03;1.30;;;;;;;;;;5032813;28;20030;-50
2022/02/07 03:15:12;;;;;;;3.28;1.77;;;;;;;;;;5018210;28;20374;-51
2022/02/07 03:17:39;;;;;;;1.55;1.40;;;;;;;;;;5017192;28;20042;-51
2022/02/07 03:20:05;;;;;;;5.47;2.95;;;;;;;;;;5016224;28;20068;-52
2022/02/07 03:22:31;;;;;;;2.75;2.22;;;;;;;;;;5018842;28;20040;-50
2022/02/07 03:24:57;;;;;;;4.95;1.88;;;8.30;99.90;;;;;;5017146;28;20041;-57
2022/02/07 03:27:22;;;;;;;5.80;2.58;;;8.20;99.90;;;;;;5017501;28;20045;-51
2022/02/07 03:29:49;;;;;;;2.83;1.98;;;8.20;99.90;;;;;;5033008;28;20056;-52
2022/02/07 03:32:15;;;;;;;5.45;3.47;;;8.30;99.90;;;;;;5000256;28;20406;-52
2022/02/07 03:34:42;;;;;;;3.75;2.45;;;;;;;;;;5017045;28;20038;-51
2022/02/07 03:37:08;;;;;;;4.05;2.50;;;;;;;;;;5015483;28;20046;-58
2022/02/07 03:39:34;;;;;;;2.50;1.58;;;;;;;;;;5016926;28;20128;-48
2022/02/07 03:42:00;;;;;;;3.15;2.20;;;;;;;;;;5014566;28;20121;-52
2022/02/07 03:44:26;;;;;;;3.22;1.55;;;;;;;;;;5016669;28;20029;-49
2022/02/07 03:46:52;;;;;;;5.65;3.08;;;8.30;99.90;;;;;;5016454;28;20030;-51
2022/02/07 03:49:18;;;;;;;5.70;3.13;;;8.50;99.90;;;;;;5014825;28;20402;-51
2022/02/07 03:51:46;;;;;;;4.32;1.70;;;8.50;99.90;;;;;;5014459;28;20034;-49
2022/02/07 03:54:13;;;;;;;5.25;2.40;;;8.50;99.90;;;;;;5017516;28;20398;-52
2022/02/07 03:56:38;;;;;;;2.88;2.03;;;8.40;99.90;;;;;;5034812;28;20120;-50
2022/02/07 03:59:04;;;;;;;3.20;1.92;;;8.40;99.90;;;;;;5033864;28;20113;-50
2022/02/07 04:01:35;;;;;;;3.30;2.45;;;8.50;99.90;;;;;;5034482;28;20041;-50
2022/02/07 04:04:01;;;;;;;7.00;3.92;;;8.40;99.90;;;;;;5033886;28;20119;-50
2022/02/07 04:06:27;;;;;;;4.30;2.35;;;8.10;99.90;;;;;;5033410;28;20038;-49
2022/02/07 04:08:58;;;;;;;6.60;4.20;;;8.10;99.90;;;;;;5033568;28;20066;-51
2022/02/07 04:13:55;;;;;;;1.88;1.33;;;8.20;99.90;;;;;;5033345;28;20034;-52
2022/02/07 04:16:22;;;;;;;3.47;2.00;;;8.30;99.90;;;;;;5033587;28;20099;-48
2022/02/07 04:18:55;;;;;;;5.18;2.35;;;8.50;99.90;;;;;;5033541;28;20144;-49
2022/02/07 04:21:21;;;;;;;4.50;2.80;;;8.50;99.90;;;;;;5033037;28;20064;-50
2022/02/07 04:23:47;;;;;;;5.68;1.83;;;8.50;99.90;;;;;;5033407;28;20036;-49
2022/02/07 04:26:13;;;;;;;6.18;2.65;;;8.50;99.90;;;;;;5033394;28;20382;-48
2022/02/07 04:28:39;;;;;;;3.00;1.90;;;8.50;99.90;;;;;;5014261;28;20405;-49
2022/02/07 04:31:04;;;;;;;4.32;2.75;;;8.50;99.90;;;;;;5046309;28;20509;-51
2022/02/07 04:33:30;;;;;;;2.28;1.88;;;8.40;99.90;;;;;;5013235;28;20049;-49
2022/02/07 04:35:56;;;;;;;31.50;13.20;;;8.50;99.90;;;;;;5028453;28;20037;-51
2022/02/07 04:38:22;;;;;;;60.22;29.00;;;8.50;99.90;;;;;;5012014;28;20466;-50
2022/02/07 04:40:47;;;;;;;47.42;22.98;;;8.60;99.90;;;;;;4995362;28;20044;-51
2022/02/07 04:43:16;;;;;;;22.08;10.80;;;8.70;99.90;;;;;;5011615;28;20041;-51
2022/02/07 04:53:50;;;;;;;9.02;5.82;;;8.90;99.90;;;;;;5011037;28;20026;-51
2022/02/07 05:03:59;;;;;;;5.70;3.70;;;9.10;99.90;;;;;;5013728;28;20114;-50
2022/02/07 05:14:42;;;;;;;48.38;25.73;;;9.20;99.90;;;;;;5013108;28;20056;-50
2022/02/07 05:17:09;;;;;;;9.23;4.95;;;9.20;99.90;;;;;;5011445;28;20057;-52
2022/02/07 05:19:35;;;;;;;7.07;3.97;;;9.20;99.90;;;;;;5012479;28;20126;-49
2022/02/07 05:22:01;;;;;;;6.15;3.75;;;9.10;99.90;;;;;;5011376;28;20057;-51
2022/02/07 05:24:27;;;;;;;5.15;2.90;;;9.10;99.90;;;;;;5027011;28;20478;-52
2022/02/07 05:26:53;;;;;;;5.65;3.10;;;8.90;99.90;;;;;;5010067;28;20041;-52
2022/02/07 05:29:18;;;;;;;6.85;3.95;;;8.80;99.90;;;;;;5010286;28;20053;-52
2022/02/07 05:31:44;;;;;;;6.32;4.35;;;8.90;99.90;;;;;;4999681;28;20125;-52
2022/02/07 05:34:10;;;;;;;8.20;4.03;;;;;;;;;;5010884;28;20065;-50
2022/02/07 05:36:42;;;;;;;6.20;3.78;;;;;;;;;;5010054;28;20029;-50
2022/02/07 05:39:08;;;;;;;5.88;3.60;;;;;;;;;;5008104;28;20112;-49
2022/02/07 05:41:34;;;;;;;7.38;5.60;;;9.60;99.90;;;;;;5026096;28;20424;-51
2022/02/07 05:44:00;;;;;;;8.18;6.25;;;9.40;99.90;;;;;;5012510;28;20030;-52
2022/02/07 05:46:26;;;;;;;10.48;8.63;;;9.40;99.90;;;;;;5010358;28;20073;-52
2022/02/07 05:48:51;;;;;;;9.65;6.15;;;9.50;99.90;;;;;;4994342;28;20140;-51
2022/02/07 05:51:17;;;;;;;7.30;5.80;;;9.40;99.90;;;;;;5013008;28;20029;-51
2022/02/07 05:53:43;;;;;;;9.65;5.00;;;9.50;99.90;;;;;;4994194;28;20128;-51
2022/02/07 05:56:09;;;;;;;7.72;4.20;;;9.60;99.90;;;;;;5010684;28;20030;-52
2022/02/07 05:58:35;;;;;;;6.93;4.47;;;9.60;99.90;;;;;;5009750;28;20118;-49
2022/02/07 06:01:01;;;;;;;6.32;4.65;;;9.60;99.90;;;;;;5008768;28;20129;-50
2022/02/07 06:03:26;;;;;;;8.30;5.18;;;9.60;99.90;;;;;;5006227;28;20042;-51
2022/02/07 06:05:52;;;;;;;15.68;14.23;;;9.60;99.90;;;;;;5006882;28;20555;-49
2022/02/07 06:08:18;;;;;;;12.35;10.55;;;9.60;99.90;;;;;;5008686;28;20498;-48
2022/02/07 06:10:45;;;;;;;15.68;10.82;;;9.70;99.90;;;;;;5010214;28;20374;-49
2022/02/07 06:13:13;;;;;;;27.88;16.10;;;;;;;;;;5000756;28;20080;-50
2022/02/07 06:15:39;;;;;;;45.17;20.58;;;;;;;;;;5002849;28;20080;-50
2022/02/07 06:18:05;;;;;;;21.05;11.50;;;9.20;99.90;;;;;;4997811;28;20129;-53
2022/02/07 06:20:30;;;;;;;19.10;9.63;;;9.30;99.90;;;;;;5007904;28;20191;-54
2022/02/07 06:22:56;;;;;;;12.35;6.95;;;9.30;99.90;;;;;;5002078;28;20035;-50
2022/02/07 06:25:22;;;;;;;58.22;28.58;;;9.30;99.90;;;;;;5010211;28;20192;-51
2022/02/07 06:27:50;;;;;;;32.08;16.95;;;9.40;99.90;;;;;;5009590;28;20046;-55
2022/02/07 06:30:16;;;;;;;10.68;6.80;;;9.40;99.90;;;;;;5007856;28;20022;-49
2022/02/07 06:32:42;;;;;;;10.73;6.95;;;9.40;99.90;;;;;;5010171;28;20425;-48
2022/02/07 06:35:08;;;;;;;7.68;6.20;;;9.40;99.90;;;;;;5011770;28;20034;-51
2022/02/07 06:37:34;;;;;;;8.00;5.20;;;9.50;99.90;;;;;;5012843;28;20409;-53
2022/02/07 06:40:00;;;;;;;8.38;5.50;;;9.50;99.90;;;;;;5013673;28;20087;-49
2022/02/07 06:42:26;;;;;;;12.52;6.93;;;9.50;99.90;;;;;;5013822;28;20022;-50
2022/02/07 06:44:52;;;;;;;12.57;7.47;;;9.50;99.90;;;;;;5015923;28;20026;-52
2022/02/07 06:47:17;;;;;;;13.77;8.27;;;9.50;99.90;;;;;;5014079;28;20041;-49
2022/02/07 06:49:43;;;;;;;11.73;6.78;;;9.50;99.90;;;;;;5014124;28;20121;-49
2022/02/07 06:52:09;;;;;;;8.13;5.00;;;9.50;99.90;;;;;;5016432;28;20033;-53
2022/02/07 06:54:35;;;;;;;7.28;4.70;;;9.40;99.90;;;;;;5016278;28;20473;-52
2022/02/07 06:57:01;;;;;;;8.25;5.03;;;9.50;99.90;;;;;;5016322;28;20425;-50
2022/02/07 06:59:30;;;;;;;8.82;4.68;;;9.40;99.90;;;;;;5016109;28;20053;-52
2022/02/07 07:01:56;;;;;;;8.13;4.57;;;9.40;99.90;;;;;;5016220;28;20034;-47
2022/02/07 07:04:22;;;;;;;8.23;5.70;;;9.20;99.90;;;;;;5015965;28;20026;-51
2022/02/07 07:06:48;;;;;;;13.00;6.63;;;9.10;99.90;;;;;;5014011;28;20042;-50
2022/02/07 07:09:14;;;;;;;13.82;9.82;;;9.00;99.90;;;;;;5015954;28;20084;-50
2022/02/07 07:11:42;;;;;;;15.05;9.75;;;8.80;99.90;;;;;;5016060;28;20470;-53
2022/02/07 07:14:28;;;;;;;12.75;8.23;;;8.70;99.90;;;;;;5016000;28;20026;-49
2022/02/07 07:16:53;;;;;;;12.68;7.07;;;8.70;99.90;;;;;;5015801;28;20113;-55
2022/02/07 07:19:20;;;;;;;157.95;141.07;;;8.60;99.90;;;;;;5015752;28;20514;-51
2022/02/07 07:21:47;;;;;;;165.43;91.60;;;8.70;99.90;;;;;;4997273;28;20033;-50
2022/02/07 07:24:13;;;;;;;367.52;173.38;;;8.90;99.90;;;;;;5015950;28;20432;-54
2022/02/07 07:26:40;;;;;;;435.58;275.20;;;8.80;99.90;;;;;;5015450;28;20505;-49
2022/02/07 07:29:14;;;;;;;53.63;36.15;;;8.80;99.90;;;;;;5015679;28;20038;-52
2022/02/07 07:31:50;;;;;;;9.57;5.07;;;8.80;99.90;;;;;;5015521;28;20689;-52
2022/02/07 07:34:18;;;;;;;8.95;5.45;;;8.70;99.90;;;;;;5015612;28;20105;-53
2022/02/07 07:36:45;;;;;;;8.90;5.70;;;8.60;99.90;;;;;;5015562;28;20471;-52
2022/02/07 07:39:13;;;;;;;6.05;4.15;;;8.60;99.90;;;;;;5015771;28;20029;-51
2022/02/07 07:41:44;;;;;;;7.90;5.53;;;8.60;99.90;;;;;;5015918;28;20038;-54
2022/02/07 07:44:10;;;;;;;11.48;6.28;;;8.70;99.90;;;;;;5016640;28;20062;-51
2022/02/07 07:46:37;;;;;;;11.30;6.05;;;8.70;99.90;;;;;;5013303;28;20454;-54
2022/02/07 07:49:10;;;;;;;7.80;4.15;;;8.60;99.90;;;;;;5015219;28;20046;-53
2022/02/07 08:02:17;;;;;;;10.48;7.05;;;8.90;99.90;;;;;;5014752;28;20397;-54
2022/02/07 08:04:44;;;;;;;9.85;5.95;;;9.00;99.90;;;;;;5004549;28;20438;-52
2022/02/07 08:12:37;;;;;;;15.85;8.95;;;9.00;99.90;;;;;;5032007;28;20711;-53
2022/02/07 08:15:04;;;;;;;22.98;14.10;;;9.10;99.90;;;;;;5032187;28;20037;-51
2022/02/07 08:17:30;;;;;;;32.40;19.83;;;9.40;99.90;;;;;;5032149;28;20026;-47
2022/02/07 08:19:57;;;;;;;24.10;13.65;;;9.40;99.90;;;;;;5031389;28;20486;-51
2022/02/07 08:22:26;;;;;;;24.13;14.65;;;9.30;99.90;;;;;;5031480;28;20033;-52
2022/02/07 08:24:56;;;;;;;78.95;42.22;;;9.40;99.90;;;;;;5031352;28;20032;-53
2022/02/07 08:27:24;;;;;;;55.38;33.75;;;9.70;99.90;;;;;;5031156;28;20136;-54
2022/02/07 08:29:51;;;;;;;29.52;18.42;;;10.00;99.90;;;;;;5031245;28;20084;-56
2022/02/07 08:32:17;;;;;;;23.27;16.13;;;10.20;99.90;;;;;;5031279;28;20092;-58
2022/02/07 08:34:42;;;;;;;26.75;16.88;;;10.40;99.90;;;;;;5047414;28;20065;-51
2022/02/07 08:37:08;;;;;;;121.55;45.80;;;10.60;99.90;;;;;;5030980;28;20113;-51
2022/02/07 08:39:34;;;;;;;32.65;20.83;;;10.40;99.90;;;;;;4998064;28;20120;-49
2022/02/07 08:42:00;;;;;;;47.55;29.65;;;10.10;99.90;;;;;;5029595;28;20041;-48
2022/02/07 08:44:27;;;;;;;40.35;21.85;;;10.00;99.90;;;;;;5009722;28;20036;-49
2022/02/07 08:46:54;;;;;;;168.38;58.28;;;10.10;99.90;;;;;;5007794;28;20123;-51
2022/02/07 08:49:20;;;;;;;78.38;28.77;;;10.00;99.90;;;;;;5006468;28;20042;-57
2022/02/07 08:51:46;;;;;;;14.85;9.00;;;10.20;99.90;;;;;;4991073;28;20509;-55
2022/02/07 08:54:18;;;;;;;10.13;6.53;;;10.50;99.90;;;;;;4991534;28;20038;-52
2022/02/07 08:59:42;;;;;;;63.60;19.38;;;10.80;99.90;;;;;;4971845;28;20051;-51
2022/02/07 09:07:13;;;;;;;71.80;25.65;;;10.70;99.90;;;;;;4970931;28;20046;-59
2022/02/07 09:09:43;;;;;;;80.43;28.08;;;10.70;99.90;;;;;;4972238;28;20703;-49
2022/02/07 09:12:09;;;;;;;77.90;31.45;;;10.70;99.90;;;;;;4954401;28;20039;-55
2022/02/07 09:14:42;;;;;;;67.10;26.90;;;10.60;99.90;;;;;;4974484;28;20052;-52
2022/02/07 09:17:08;;;;;;;88.13;35.80;;;10.70;99.90;;;;;;4949962;28;20074;-52
2022/02/07 09:19:36;;;;;;;25.75;13.48;;;10.90;99.90;;;;;;4980159;28;20116;-48
2022/02/07 09:22:04;;;;;;;12.73;7.60;;;11.00;99.90;;;;;;4988541;28;20113;-53
2022/02/07 09:24:30;;;;;;;17.52;9.10;;;11.20;99.90;;;;;;4981892;28;20515;-54
2022/02/07 09:26:57;;;;;;;17.45;9.55;;;11.30;99.90;;;;;;4979828;28;20537;-54
2022/02/07 09:29:22;;;;;;;17.17;11.52;;;11.30;99.90;;;;;;4977666;28;20097;-51
2022/02/07 09:31:48;;;;;;;15.43;11.27;;;11.40;99.90;;;;;;4991264;28;20034;-51
2022/02/07 09:34:14;;;;;;;31.95;21.73;;;11.50;99.90;;;;;;4991302;28;20026;-53
2022/02/07 09:36:40;;;;;;;31.30;19.85;;;11.60;99.90;;;;;;4992397;28;20112;-54
2022/02/07 09:39:06;;;;;;;16.85;10.45;;;11.60;99.90;;;;;;4994438;28;20080;-55
2022/02/07 09:41:33;;;;;;;20.70;14.52;;;11.90;99.90;;;;;;5013121;28;20105;-47
2022/02/07 09:44:02;;;;;;;18.17;10.80;;;11.50;99.90;;;;;;5012880;28;20589;-53
2022/02/07 09:46:43;;;;;;;18.02;10.70;;;11.20;99.90;;;;;;5009413;28;20558;-49
2022/02/07 09:49:10;;;;;;;7.90;4.80;;;10.90;99.90;;;;;;5009473;28;20070;-50
2022/02/07 09:51:37;;;;;;;10.52;3.10;;;;;;;;;;4994170;28;20120;-48
2022/02/07 09:54:03;;;;;;;2.90;1.83;;;8.60;99.90;;;;;;5012284;28;20366;-50
2022/02/07 09:56:29;;;;;;;3.45;1.92;;;8.10;99.90;;;;;;5011880;28;20080;-51
2022/02/07 09:58:55;;;;;;;4.03;2.80;;;;;;;;;;5011416;28;20029;-46
2022/02/07 10:01:33;;;;;;;5.43;2.00;;;7.30;99.90;;;;;;5012548;28;20113;-53
2022/02/07 10:04:06;;;;;;;2.65;1.00;;;7.20;99.90;;;;;;5011896;28;20037;-49
2022/02/07 10:14:28;;;;;;;2.42;0.82;;;6.70;99.90;;;;;;5009685;28;20030;-58
2022/02/07 10:20:00;;;;;;;1.90;0.57;;;6.60;99.90;;;;;;5009879;28;20172;-56
2022/02/07 10:39:02;;;;;;;5.30;2.60;;;6.70;99.90;;;;;;5010198;28;20482;-52
2022/02/07 10:44:47;;;;;;;3.97;1.85;;;6.80;99.90;;;;;;5009612;28;20033;-53
2022/02/07 10:47:26;;;;;;;5.93;2.92;;;6.70;99.90;;;;;;5005527;28;20034;-52
2022/02/07 10:50:03;;;;;;;6.85;3.25;;;6.70;99.90;;;;;;5012318;28;20026;-55
2022/02/07 10:52:55;;;;;;;3.60;2.22;;;6.70;99.90;;;;;;5010339;28;20042;-54
2022/02/07 10:55:32;;;;;;;3.72;1.88;;;6.90;99.90;;;;;;5012893;28;20032;-52
2022/02/07 10:58:00;;;;;;;3.28;1.77;;;7.00;99.90;;;;;;5011408;28;20028;-64
2022/02/07 11:00:40;;;;;;;4.43;2.47;;;7.10;99.90;;;;;;5011625;28;20120;-54
2022/02/07 11:03:18;;;;;;;3.63;2.30;;;7.10;99.90;;;;;;5012123;28;20462;-55
2022/02/07 11:05:50;;;;;;;1.35;1.05;;;7.10;99.90;;;;;;5012140;28;20053;-47
2022/02/07 11:08:22;;;;;;;1.50;0.98;;;7.10;99.90;;;;;;5010524;28;20050;-49
2022/02/07 11:22:29;;;;;;;2.22;0.70;;;7.40;99.90;;;;;;4965429;28;20038;-53
2022/02/07 11:27:42;;;;;;;1.70;1.13;;;7.60;99.90;;;;;;4951893;28;20059;-50
2022/02/07 11:30:13;;;;;;;1.40;0.90;;;7.80;99.90;;;;;;4953654;28;20090;-52
2022/02/07 11:32:42;;;;;;;4.50;2.38;;;7.80;99.90;;;;;;4965986;28;20081;-52
2022/02/07 11:35:15;;;;;;;2.58;1.52;;;7.80;99.90;;;;;;4964857;28;20035;-52
2022/02/07 11:37:43;;;;;;;1.80;1.33;;;7.90;99.90;;;;;;4975103;28;20049;-52
2022/02/07 11:40:56;;;;;;;2.42;1.80;;;7.90;99.90;;;;;;4972350;28;20039;-52
2022/02/07 11:43:25;;;;;;;3.40;1.80;;;7.70;99.90;;;;;;4894537;29;20040;-51
2022/02/07 11:45:54;;;;;;;7.68;3.60;;;7.70;99.90;;;;;;4898392;29;20397;-52
2022/02/07 11:48:43;;;;;;;5.32;2.83;;;7.70;99.90;;;;;;4898269;29;20463;-53
2022/02/07 11:51:14;;;;;;;10.50;4.72;;;7.70;99.90;;;;;;4898869;29;20116;-51
2022/02/07 11:53:46;;;;;;;10.93;6.83;;;7.70;99.90;;;;;;4920354;29;20067;-52
2022/02/07 11:56:19;;;;;;;7.72;3.88;;;7.60;99.90;;;;;;4918896;29;20466;-52
2022/02/07 11:59:13;;;;;;;6.40;3.63;;;7.50;99.90;;;;;;4934665;29;20663;-52
2022/02/07 12:02:00;;;;;;;5.07;2.92;;;7.50;99.90;;;;;;4948954;29;20483;-52
2022/02/07 12:04:37;;;;;;;3.25;1.63;;;7.60;99.90;;;;;;4953956;29;20113;-52
2022/02/07 12:07:14;;;;;;;4.15;2.80;;;7.60;99.90;;;;;;4969749;28;20047;-52
2022/02/07 12:12:51;;;;;;;6.60;2.55;;;7.50;99.90;;;;;;4936143;28;20140;-53
2022/02/07 12:15:17;;;;;;;5.22;3.28;;;7.40;99.90;;;;;;4973475;28;20047;-54
2022/02/07 12:17:51;;;;;;;4.00;2.70;;;7.60;99.90;;;;;;4973034;28;20105;-52
2022/02/07 12:20:21;;;;;;;4.85;3.45;;;7.60;99.90;;;;;;4939508;29;20047;-52
2022/02/07 12:22:48;;;;;;;10.30;5.20;;;7.50;99.90;;;;;;4968507;28;20043;-52
2022/02/07 12:25:22;;;;;;;5.45;3.33;;;7.60;99.90;;;;;;4966398;28;20042;-53
2022/02/07 12:27:48;;;;;;;2.80;1.83;;;7.50;99.90;;;;;;4971239;28;20442;-52
2022/02/07 12:30:17;;;;;;;4.47;2.97;;;7.60;99.90;;;;;;4954705;28;20605;-53
2022/02/07 12:32:47;;;;;;;5.15;3.20;;;7.60;99.90;;;;;;4955163;28;20038;-53
2022/02/07 12:35:14;;;;;;;4.30;2.33;;;7.60;99.90;;;;;;4971819;28;20034;-51
2022/02/07 12:37:41;;;;;;;4.45;2.88;;;7.60;99.90;;;;;;4971930;28;20041;-52
2022/02/07 12:40:09;;;;;;;5.68;3.60;;;7.70;99.90;;;;;;4971960;28;20426;-53
2022/02/07 12:42:37;;;;;;;11.90;5.90;;;7.70;99.90;;;;;;4971541;28;20039;-53
2022/02/07 12:45:04;;;;;;;4.05;2.42;;;7.60;99.90;;;;;;4971442;28;20368;-54
2022/02/07 12:47:38;;;;;;;7.47;2.13;;;7.60;99.90;;;;;;4955362;28;20174;-52
2022/02/07 12:50:14;;;;;;;3.33;1.90;;;7.60;99.90;;;;;;4995913;28;20042;-52
2022/02/07 12:52:40;;;;;;;4.78;2.88;;;7.60;99.90;;;;;;5012518;28;20026;-53
2022/02/07 12:55:08;;;;;;;2.45;1.60;;;7.50;99.90;;;;;;5012435;28;20026;-54
2022/02/07 12:57:44;;;;;;;3.00;2.05;;;7.40;99.90;;;;;;5013883;28;20025;-52
2022/02/07 13:00:14;;;;;;;7.05;3.50;;;7.40;99.90;;;;;;5013757;28;20034;-52
2022/02/07 13:02:45;;;;;;;2.67;1.90;;;7.40;99.90;;;;;;4994948;28;20041;-52
2022/02/07 13:05:17;;;;;;;5.20;2.63;;;7.40;99.90;;;;;;4978597;28;20490;-54
2022/02/07 13:07:48;;;;;;;6.68;3.25;;;7.40;99.90;;;;;;5010571;28;20038;-54
2022/02/07 13:10:18;;;;;;;3.67;2.55;;;7.50;99.90;;;;;;5011137;28;20064;-55
2022/02/07 13:15:24;;;;;;;7.25;3.30;;;7.60;99.90;;;;;;5010993;28;20093;-53
2022/02/07 13:17:57;;;;;;;16.88;6.00;;;7.50;99.90;;;;;;4977954;28;20026;-51
2022/02/07 13:20:24;;;;;;;6.97;3.65;;;7.50;99.90;;;;;;5010851;28;20054;-52
2022/02/07 13:23:19;;;;;;;4.63;2.22;;;7.50;99.90;;;;;;5010714;28;20069;-53
2022/02/07 13:25:50;;;;;;;2.67;1.67;;;7.50;99.90;;;;;;4994582;28;20453;-52
2022/02/07 13:28:22;;;;;;;5.55;3.75;;;7.40;99.90;;;;;;5010701;28;20038;-55
2022/02/07 13:30:51;;;;;;;5.95;3.15;;;7.40;99.90;;;;;;5010807;28;20482;-55
2022/02/07 13:33:17;;;;;;;20.00;9.95;;;7.40;99.90;;;;;;4998195;28;20038;-55
2022/02/07 13:35:47;;;;;;;2.35;1.90;;;7.40;99.90;;;;;;5013429;28;20029;-52
2022/02/07 13:38:15;;;;;;;5.78;3.38;;;7.60;99.90;;;;;;5013086;28;20026;-53
2022/02/07 13:40:43;;;;;;;2.40;2.00;;;7.60;99.90;;;;;;5013011;28;20049;-56
2022/02/07 13:43:20;;;;;;;6.30;3.35;;;7.60;99.90;;;;;;5012237;28;20022;-53
2022/02/07 13:45:52;;;;;;;5.90;4.22;;;7.70;99.90;;;;;;5016555;28;20086;-54
2022/02/07 13:48:19;;;;;;;;;;;7.70;99.90;;;;;;5011972;28;20492;-51
2022/02/07 13:50:48;;;;;;;4.28;2.33;;;7.80;99.90;;;;;;5018461;28;19906;-53
2022/02/07 13:53:17;;;;;;;5.25;3.03;;;8.00;99.90;;;;;;5011645;28;20046;-51
2022/02/07 13:55:44;;;;;;;8.77;5.70;;;;;;;;;;5010102;28;20057;-57
2022/02/07 13:58:14;;;;;;;7.80;3.50;;;;;;;;;;5011982;28;20442;-55
2022/02/07 14:00:49;;;;;;;5.82;3.33;;;7.90;99.90;;;;;;5012300;28;20489;-53
2022/02/07 14:03:27;;;;;;;8.35;4.90;;;8.00;99.90;;;;;;5009460;28;20049;-55
2022/02/07 14:06:06;;;;;;;6.97;4.75;;;8.00;99.90;;;;;;5011593;28;20037;-57
2022/02/07 14:08:46;;;;;;;3.42;2.13;;;7.90;99.90;;;;;;5011972;28;20470;-53
2022/02/07 14:11:21;;;;;;;4.10;2.55;;;8.00;99.90;;;;;;5010994;28;20029;-55
2022/02/07 14:13:49;;;;;;;4.65;2.38;;;8.10;99.90;;;;;;5011615;28;20033;-53
2022/02/07 14:16:18;;;;;;;9.57;4.55;;;8.10;99.90;;;;;;5009407;28;20147;-52
2022/02/07 14:18:46;;;;;;;4.53;2.63;;;8.00;99.90;;;;;;5009841;28;20050;-52
2022/02/07 14:21:17;;;;;;;5.32;3.50;;;8.00;99.90;;;;;;5010013;28;20188;-56
2022/02/07 14:23:45;;;;;;;3.65;2.47;;;8.00;99.90;;;;;;5009321;28;20412;-57
2022/02/07 14:26:15;;;;;;;4.60;3.35;;;7.90;99.90;;;;;;5009375;28;20610;-51
2022/02/07 14:28:51;;;;;;;3.72;2.50;;;7.90;99.90;;;;;;5009587;28;20046;-55
2022/02/07 14:31:19;;;;;;;2.28;1.63;;;7.90;99.90;;;;;;5003891;28;20057;-54
2022/02/07 14:33:46;;;;;;;3.33;1.60;;;7.70;99.90;;;;;;4989625;28;20042;-53
2022/02/07 14:36:12;;;;;;;4.47;2.25;;;7.70;99.90;;;;;;5006150;28;20618;-54
2022/02/07 14:38:38;;;;;;;4.10;2.58;;;7.60;99.90;;;;;;4990424;28;20390;-57
2022/02/07 14:41:11;;;;;;;2.08;1.10;;;7.60;99.90;;;;;;4973886;28;20031;-52
2022/02/07 14:43:38;;;;;;;3.47;2.13;;;7.50;99.90;;;;;;4990302;28;20470;-54
2022/02/07 14:48:33;;;;;;;5.82;2.92;;;6.60;99.90;;;;;;5009820;28;20088;-56
2022/02/07 14:50:59;;;;;;;2.00;1.13;;;7.50;99.90;;;;;;5009853;28;20045;-56
2022/02/07 14:53:25;;;;;;;4.35;2.55;;;7.50;99.90;;;;;;5009594;28;20387;-53
2022/02/07 14:55:52;;;;;;;2.05;1.05;;;7.40;99.90;;;;;;5009713;28;20509;-54
2022/02/07 14:58:19;;;;;;;3.65;1.27;;;7.50;99.90;;;;;;5009766;28;20479;-54
2022/02/07 15:00:46;;;;;;;2.35;1.50;;;7.20;99.90;;;;;;5009658;28;20073;-55
2022/02/07 15:03:14;;;;;;;3.60;1.90;;;7.20;99.90;;;;;;5011119;28;20482;-56
2022/02/07 15:05:40;;;;;;;4.28;2.92;;;7.10;99.90;;;;;;5014571;28;20049;-55
2022/02/07 15:08:06;;;;;;;2.67;1.83;;;7.20;99.90;;;;;;5015777;28;20026;-54
2022/02/07 15:10:35;;;;;;;1.23;1.05;;;7.10;99.90;;;;;;5013303;28;20046;-55
2022/02/07 15:13:04;;;;;;;10.48;6.05;;;7.00;99.90;;;;;;5013425;28;20042;-54
2022/02/07 15:15:30;;;;;;;1.98;1.17;;;7.10;99.90;;;;;;4996768;28;20045;-53
2022/02/07 15:17:58;;;;;;;4.88;2.40;;;7.00;99.90;;;;;;4964286;28;20025;-55
2022/02/07 15:20:24;;;;;;;5.97;3.20;;;7.10;99.90;;;;;;5013349;28;20045;-56
2022/02/07 15:22:51;;;;;;;1.48;1.38;;;7.00;99.90;;;;;;5013338;28;20090;-52
2022/02/07 15:25:22;;;;;;;3.88;2.25;;;7.00;99.90;;;;;;5012942;28;20045;-57
2022/02/07 15:27:48;;;;;;;4.13;2.05;;;7.10;99.90;;;;;;4995987;28;20049;-55
2022/02/07 15:30:18;;;;;;;4.28;2.30;;;7.20;99.90;;;;;;4996484;28;20168;-55
2022/02/07 15:32:48;;;;;;;4.43;2.30;;;7.10;99.90;;;;;;5013203;28;20060;-56
2022/02/07 15:35:14;;;;;;;2.38;1.80;;;7.20;99.90;;;;;;4996631;28;20046;-58
2022/02/07 15:37:40;;;;;;;4.45;2.25;;;7.20;99.90;;;;;;5010337;28;20133;-55
2022/02/07 15:40:08;;;;;;;2.83;1.60;;;7.20;99.90;;;;;;5012816;28;20033;-56
2022/02/07 15:42:34;;;;;;;2.63;1.50;;;7.20;99.90;;;;;;5011128;28;20034;-58
2022/02/07 15:45:00;;;;;;;3.70;2.05;;;7.20;99.90;;;;;;5012659;28;20037;-54
2022/02/07 15:47:34;;;;;;;5.07;2.10;;;7.20;99.90;;;;;;5012288;28;20042;-54
2022/02/07 15:50:04;;;;;;;4.72;1.67;;;7.20;99.90;;;;;;5012980;28;20061;-55
2022/02/07 15:52:30;;;;;;;3.53;1.60;;;7.20;99.90;;;;;;4996221;28;20074;-56
2022/02/07 15:54:56;;;;;;;2.88;1.70;;;7.10;99.90;;;;;;5010257;28;20062;-53
2022/02/07 15:57:22;;;;;;;4.72;1.75;;;7.10;99.90;;;;;;5008946;28;20073;-55
2022/02/07 15:59:48;;;;;;;6.15;2.97;;;7.10;99.90;;;;;;5012299;28;20061;-58
2022/02/07 16:02:14;;;;;;;6.57;2.90;;;7.10;99.90;;;;;;5012286;28;20164;-57
2022/02/07 16:04:41;;;;;;;4.53;2.33;;;7.10;99.90;;;;;;4979131;28;20381;-55